Main page
METAR-TAF:

METAR-TAF

Airports :

Žilina, Slovakia

Žilina Airport

latitude: 49-14N, longitude: 018-36-49E, elevation: 312 m

Current weather observation

The report was made 23 minutes ago, at 14:00 UTC
Wind 6 kt from the West/Southwest
Temperature 25°C
Humidity 39%
Pressure 1022 hPa
Visibility 10 km or more
no clouds below 1500 m and no cumulonimbus

METAR: LZZI 281400Z 24006KT CAVOK 25/10 Q1022

Time: 16:23 (14:23 UTC)

Forecast

The report was made 3 hours and 23 minutes ago, at 11:00 UTC
Forecast valid from 28 at 12 UTC to 28 at 21 UTC
Wind 2 kt from variable directions
Visibility 10 km or more
no clouds below 1500 m and no cumulonimbus
Temporary
from 28 at 12 UTC to 28 at 16 UTC
Wind 5 kt from the West/Southwest
Visibility 10 km or more
Few clouds at a height of 5500 ft

TAF: LZZI 281100Z 2812/2821 VRB02KT CAVOK TEMPO 2812/2816 24005KT 9999 FEW055

Weather observations and forecasts of more than 4000 airports (METAR and TAF reports).

The available stations are represented by yellow and red dots on the map.

Hover mouse over dot to see the name of the station.

Then click to see weather observations and forecasts.

To change the map : click on the green buttons with a black cross to zoom in, on the green button with a dash to zoom out, or on the green arrows for adjacent maps.


METAR-TAF: